Latest Weather Observations for Darwin Airport

IDD60901

Issued at 1:45 pm CST Thursday 2 October 2014 (issued every 10 minutes, with the page automatically refreshed every 10 minutes)

About weather observations | Map of Darwin area stations | Latest observations for Darwin area | Other Formats
Station Details ID: 014015 Name: DARWIN AIRPORT Lat: -12.42 Lon: 130.89 Height: 30.4 m
Data from the previous 72 hours. | See also: Recent months at Darwin Airport
Date/Time
CST
Tmp

°C
App
Tmp
°C
Dew
Point
°C
Rel
Hum
%
Delta-T

°C
Wind Press
QNH
hPa
Press
MSL
hPa
Rain
since
9 am
mm
Dir
 
Spd
km/h
Gust
km/h
Spd
kts
Gust
kts
02/01:30pm 32.1 31.3 20.0 48 8.0 NNW 24 33 13 18 1010.5 - 0.0
02/01:00pm 33.0 31.7 18.2 41 9.6 NW 22 30 12 16 1011.1 - 0.0
02/12:30pm 30.9 30.1 18.5 47 8.0 WNW 20 28 11 15 1011.7 - 0.0
02/12:00pm 30.1 30.4 19.6 53 6.9 WNW 17 26 9 14 1012.4 1012.1 0.0
02/11:30am 30.1 30.5 20.6 56 6.3 WNW 19 28 10 15 1013.1 - 0.0
02/11:00am 29.5 29.7 18.5 51 7.1 NW 15 19 8 10 1013.5 - 0.0
02/10:30am 29.3 30.3 19.5 55 6.4 SSW 13 24 7 13 1014.1 - 0.0
02/10:00am 28.6 30.0 19.5 58 5.9 SSE 11 19 6 10 1014.3 - 0.0
02/09:30am 28.5 30.0 20.6 62 5.2 SSW 13 17 7 9 1014.3 - 0.0
02/09:00am 28.6 31.9 20.7 62 5.2 WSW 4 11 2 6 1014.4 1014.1 0.0
02/08:30am 27.9 30.3 20.8 65 4.7 ESE 9 11 5 6 1014.3 - 0.0
02/08:00am 27.2 30.1 21.0 69 4.1 E 7 11 4 6 1014.0 - 0.0
02/07:30am 25.5 28.4 21.1 76 2.9 ESE 7 9 4 5 1013.6 - 0.0
02/07:00am 23.2 25.5 20.6 85 1.7 E 9 9 5 5 1013.3 - 0.0
02/06:30am 22.7 25.0 20.7 88 1.3 E 9 11 5 6 1012.6 - 0.0
02/06:00am 22.0 25.8 20.1 89 1.2 NE 0 0 0 0 1012.3 1012.0 0.0
02/05:30am 22.3 24.7 20.1 87 1.4 W 7 11 4 6 1011.8 - 0.0
02/05:00am 22.5 24.5 20.0 86 1.6 W 9 11 5 6 1011.6 - 0.0
02/04:30am 23.5 25.3 20.3 82 2.1 SW 11 11 6 6 1011.5 - 0.0
02/04:00am 24.3 26.5 20.5 79 2.5 W 9 11 5 6 1011.5 - 0.0
02/03:30am 25.5 27.4 20.5 74 3.3 W 11 13 6 7 1011.5 - 0.0
02/03:00am 25.7 27.7 20.0 71 3.7 W 9 11 5 6 1011.8 1011.5 0.0
02/02:30am 25.2 27.3 20.1 73 3.3 SW 9 9 5 5 1012.0 - 0.0
02/02:00am 25.0 27.8 20.4 75 3.0 SSW 6 7 3 4 1012.5 - 0.0
02/01:30am 25.6 28.2 20.4 73 3.4 E 7 9 4 5 1012.8 - 0.0
02/01:00am 26.1 28.8 20.3 70 3.8 N 6 9 3 5 1013.1 - 0.0
02/12:30am 26.9 28.2 19.3 63 4.9 WNW 11 15 6 8 1013.2 - 0.0
02/12:00am 26.5 26.1 20.2 68 4.1 NNW 22 26 12 14 1013.2 1012.9 0.0
 
Date/Time
CST
Tmp

°C
App
Tmp
°C
Dew
Point
°C
Rel
Hum
%
Delta-T

°C
Wind Press
QNH
hPa
Press
MSL
hPa
Rain
since
9 am
mm
Dir
 
Spd
km/h
Gust
km/h
Spd
kts
Gust
kts
01/11:30pm 26.8 26.8 20.9 70 3.9 N 22 32 12 17 1013.1 - 0.0
01/11:00pm 27.1 27.7 21.4 71 3.8 N 20 28 11 15 1013.2 - 0.0
01/10:30pm 27.5 27.5 21.0 67 4.3 NNW 22 32 12 17 1013.0 - 0.0
01/10:00pm 26.1 27.6 18.9 64 4.6 ENE 9 13 5 7 1012.9 - 0.0
01/09:30pm 27.0 28.0 18.6 60 5.4 E 11 13 6 7 1012.6 - 0.0
01/09:00pm 27.3 27.6 18.0 56 5.9 E 13 15 7 8 1012.4 1012.1 0.0
01/08:30pm 26.6 28.4 19.5 65 4.6 E 9 13 5 7 1012.0 - 0.0
01/08:00pm 27.1 30.5 19.4 62 5.0 CALM 0 0 0 0 1011.5 - 0.0
01/07:30pm 27.9 29.7 19.6 60 5.4 W 9 9 5 5 1011.0 - 0.0
01/07:00pm 28.5 30.0 18.9 56 6.2 NW 9 11 5 6 1010.5 - 0.0
01/06:30pm 28.7 28.8 19.1 56 6.2 NW 17 20 9 11 1010.2 - 0.0
01/06:00pm 29.2 28.7 18.7 53 6.8 NW 19 24 10 13 1009.9 1009.6 0.0
01/05:30pm 30.0 29.2 18.0 48 7.7 NNW 19 24 10 13 1009.4 - 0.0
01/05:00pm 30.4 29.2 17.0 44 8.5 N 19 24 10 13 1009.3 - 0.0
01/04:30pm 31.2 27.7 16.4 41 9.3 N 30 35 16 19 1008.9 - 0.0
01/04:00pm 31.1 28.1 16.9 42 9.0 NNE 28 37 15 20 1009.1 - 0.0
01/03:30pm 31.2 27.7 16.6 41 9.2 N 30 39 16 21 1009.2 - 0.0
01/03:00pm 31.6 28.5 16.5 40 9.5 N 28 37 15 20 1009.8 1009.5 0.0
01/02:30pm 31.0 27.8 17.3 43 8.7 N 30 37 16 20 1010.4 - 0.0
01/02:00pm 31.0 28.6 17.3 43 8.7 N 26 32 14 17 1010.9 - 0.0
01/01:30pm 30.8 28.9 19.3 50 7.5 NNW 28 33 15 18 1011.6 - 0.0
01/01:00pm 29.9 28.1 19.5 53 6.8 N 28 35 15 19 1012.2 - 0.0
01/12:30pm 30.9 29.3 19.3 50 7.6 NW 26 33 14 18 1012.6 - 0.0
01/12:00pm 32.3 30.7 15.0 35 10.7 NE 17 26 9 14 1013.4 1013.1 0.0
01/11:30am 32.6 31.5 15.2 35 10.8 ENE 15 30 8 16 1013.9 - 0.0
01/11:00am 30.2 30.2 17.1 45 8.3 ENE 13 20 7 11 1014.4 - 0.0
01/10:30am 30.3 29.4 17.8 47 8.0 E 19 26 10 14 1014.7 - 0.0
01/10:00am 29.8 28.5 17.3 47 7.9 ENE 20 32 11 17 1014.9 - 0.0
01/09:30am 29.3 29.7 19.1 54 6.6 E 15 20 8 11 1014.9 - 0.0
01/09:00am 28.4 29.6 19.8 59 5.6 ENE 13 19 7 10 1014.9 1014.6 0.0
01/08:30am 26.8 29.6 20.9 70 3.9 ESE 7 11 4 6 1014.6 - 0.0
01/08:00am 27.0 30.1 21.1 70 3.9 S 6 9 3 5 1014.3 - 0.0
01/07:30am 25.0 29.6 21.7 82 2.2 CALM 0 6 0 3 1013.8 - 0.0
01/07:00am 23.8 26.5 21.4 86 1.6 SSW 9 11 5 6 1013.3 - 0.0
01/06:30am 23.6 26.0 20.8 84 1.8 S 9 11 5 6 1013.1 - 0.0
01/06:00am 24.2 26.8 21.2 83 2.0 S 9 11 5 6 1012.9 1012.6 0.0
01/05:30am 24.4 27.3 21.1 82 2.2 SSE 7 9 4 5 1012.7 - 0.0
01/05:00am 23.8 26.8 21.2 85 1.7 E 7 9 4 5 1012.5 - 0.0
01/04:30am 24.3 26.6 21.4 84 1.9 ENE 11 15 6 8 1012.2 - 0.0
01/04:00am 24.5 26.5 21.5 83 2.0 ENE 13 17 7 9 1012.0 - 0.0
01/03:30am 24.4 26.8 21.5 84 1.9 ENE 11 11 6 6 1012.2 - 0.0
01/03:00am 24.8 27.6 21.5 82 2.2 ENE 9 11 5 6 1012.4 1012.1 0.0
01/02:30am 25.3 28.2 21.7 80 2.4 ENE 9 11 5 6 1012.5 - 0.0
01/02:00am 25.3 28.4 21.5 79 2.5 NE 7 11 4 6 1012.8 - 0.0
01/01:30am 25.4 28.2 21.6 79 2.5 N 9 11 5 6 1013.0 - 0.0
01/01:00am 25.3 27.4 21.7 80 2.4 N 13 19 7 10 1013.1 - 0.0
01/12:30am 26.3 26.4 21.8 76 3.0 N 24 30 13 16 1013.2 - 0.0
01/12:00am 27.1 29.3 21.9 73 3.5 W 13 17 7 9 1013.3 1013.0 0.0
 
Date/Time
CST
Tmp

°C
App
Tmp
°C
Dew
Point
°C
Rel
Hum
%
Delta-T

°C
Wind Press
QNH
hPa
Press
MSL
hPa
Rain
since
9 am
mm
Dir
 
Spd
km/h
Gust
km/h
Spd
kts
Gust
kts
30/11:30pm 27.1 28.4 21.7 72 3.6 W 17 22 9 12 1013.3 - 0.0
30/11:00pm 26.5 29.4 21.1 72 3.6 N 7 17 4 9 1013.2 - 0.0
30/10:30pm 26.3 28.7 20.8 71 3.6 E 9 11 5 6 1013.1 - 0.0
30/10:00pm 26.5 27.8 20.2 68 4.1 ENE 13 17 7 9 1013.1 - 0.0
30/09:30pm 26.4 26.9 19.3 65 4.6 ENE 15 17 8 9 1012.6 - 0.0
30/09:00pm 26.8 28.3 18.9 62 5.1 E 9 11 5 6 1012.4 1012.1 0.0
30/08:30pm 27.2 28.1 18.4 58 5.6 ENE 11 11 6 6 1012.1 - 0.0
30/08:00pm 27.7 28.7 18.7 58 5.8 N 11 13 6 7 1011.7 - 0.0
30/07:30pm 28.5 28.6 18.4 54 6.5 NNE 15 19 8 10 1011.3 - 0.0
30/07:00pm 28.9 29.4 17.5 50 7.2 N 11 15 6 8 1010.8 - 0.0
30/06:30pm 29.3 26.8 17.1 47 7.7 NNE 26 33 14 18 1010.0 - 0.0
30/06:00pm 30.3 28.0 16.6 43 8.6 NNE 24 30 13 16 1009.6 1009.3 0.0
30/05:30pm 30.8 27.8 16.7 42 8.9 N 28 35 15 19 1009.3 - 0.0
30/05:00pm 30.9 28.2 16.6 42 9.0 NNE 26 33 14 18 1009.4 - 0.0
30/04:30pm 31.2 28.2 16.8 42 9.1 N 28 33 15 18 1009.4 - 0.0
30/04:00pm 31.2 28.4 17.2 43 8.9 N 28 35 15 19 1009.7 - 0.0
30/03:30pm 30.4 27.1 17.1 44 8.4 NNE 30 35 16 19 1010.1 - 0.0
30/03:00pm 30.7 28.2 18.1 47 8.1 NNE 28 35 15 19 1010.3 1010.0 0.0
30/02:30pm 29.7 27.3 19.1 53 6.9 N 30 37 16 20 1010.7 - 0.0
30/02:00pm 30.3 27.8 19.8 53 6.9 N 32 37 17 20 1011.1 - 0.0
30/01:30pm 29.8 28.1 19.7 54 6.6 N 28 39 15 21 1011.5 - 0.0
30/01:00pm 29.7 28.0 19.8 55 6.5 N 28 33 15 18 1011.9 - 0.0
30/12:30pm 30.9 29.7 20.0 52 7.2 N 26 33 14 18 1012.6 - 0.0
30/12:00pm 30.6 30.3 20.3 54 6.8 N 22 28 12 15 1013.2 1012.9 0.0
30/11:30am 29.4 29.2 20.5 58 5.9 N 22 32 12 17 1013.7 - 0.0
30/11:00am 30.8 31.4 20.2 53 7.0 NNE 17 28 9 15 1013.9 - 0.0
30/10:30am 29.2 29.9 19.7 56 6.2 NE 15 30 8 16 1014.3 - 0.0
30/10:00am 29.6 29.5 19.5 54 6.6 NE 19 24 10 13 1014.6 - 0.0
30/09:30am 29.3 28.5 19.3 55 6.5 NE 22 30 12 16 1014.9 - 0.0
30/09:00am 28.7 29.0 19.5 57 6.0 NE 17 26 9 14 1014.9 1014.6 0.0
30/08:30am 28.0 29.3 20.2 62 5.1 ENE 13 19 7 10 1014.8 - 0.0
30/08:00am 26.7 29.2 21.1 71 3.7 NNE 9 11 5 6 1014.5 - 0.0
30/07:30am 25.0 28.0 21.2 79 2.5 NE 7 9 4 5 1014.4 - 0.0
30/07:00am 23.0 25.7 20.7 87 1.5 E 7 7 4 4 1014.2 - 0.0
30/06:30am 22.9 25.5 20.4 86 1.6 E 7 9 4 5 1013.8 - 0.0
30/06:00am 23.4 26.2 20.5 84 1.9 E 6 7 3 4 1013.7 1013.4 0.0
30/05:30am 23.6 25.9 20.7 84 1.9 E 9 11 5 6 1013.4 - 0.0
30/05:00am 24.1 26.4 20.6 81 2.3 NE 9 11 5 6 1013.1 - 0.0
30/04:30am 24.7 26.5 20.4 77 2.8 N 11 15 6 8 1012.9 - 0.0
30/04:00am 24.3 25.8 20.6 80 2.4 N 13 19 7 10 1012.7 - 0.0
30/03:30am 23.7 25.9 20.3 81 2.2 N 9 11 5 6 1012.5 - 0.0
30/03:00am 23.9 26.5 20.4 81 2.3 NNW 7 9 4 5 1012.4 1012.1 0.0
30/02:30am 24.2 26.4 20.4 79 2.5 NNW 9 11 5 6 1012.3 - 0.0
30/02:00am 24.3 26.9 20.1 77 2.7 WNW 6 9 3 5 1012.4 - 0.0
30/01:30am 26.0 28.2 20.3 71 3.7 WNW 9 13 5 7 1012.6 - 0.0
30/01:00am 26.7 28.5 20.3 68 4.2 WNW 11 15 6 8 1012.6 - 0.0
30/12:30am 26.5 27.8 20.2 68 4.1 NNW 13 19 7 10 1012.8 - 0.0
30/12:00am 26.6 28.0 20.3 68 4.1 NNW 13 17 7 9 1013.0 1012.7 0.0
 
Date/Time
CST
Tmp

°C
App
Tmp
°C
Dew
Point
°C
Rel
Hum
%
Delta-T

°C
Wind Press
QNH
hPa
Press
MSL
hPa
Rain
since
9 am
mm
Dir
 
Spd
km/h
Gust
km/h
Spd
kts
Gust
kts
29/11:30pm 26.7 27.5 19.1 63 4.9 NW 13 19 7 10 1013.1 - 0.0
29/11:00pm 25.7 26.9 20.0 71 3.7 NW 13 15 7 8 1013.1 - 0.0
29/10:30pm 26.9 28.3 19.5 64 4.8 WNW 11 13 6 7 1012.7 - 0.0
29/10:00pm 26.8 28.6 19.5 64 4.7 W 9 13 5 7 1012.6 - 0.0
29/09:30pm 27.0 28.8 19.6 64 4.8 W 9 13 5 7 1012.4 - 0.0
29/09:00pm 27.5 28.7 19.1 60 5.4 W 11 15 6 8 1012.1 1011.8 0.0
29/08:30pm 27.8 27.8 18.2 56 6.1 WSW 15 19 8 10 1011.6 - 0.0
29/08:00pm 27.8 27.5 17.3 52 6.6 W 15 17 8 9 1011.2 - 0.0
29/07:30pm 28.5 28.3 17.6 51 6.9 WNW 15 17 8 9 1010.8 - 0.0
29/07:00pm 28.6 29.0 19.0 56 6.2 NW 15 17 8 9 1010.4 - 0.0
29/06:30pm 30.1 27.9 14.5 38 9.5 NW 19 24 10 13 1010.1 - 0.0
29/06:00pm 30.8 27.9 13.0 33 10.6 N 20 28 11 15 1009.7 1009.4 0.0
29/05:30pm 31.8 28.5 11.7 29 11.8 N 20 28 11 15 1009.4 - 0.0
29/05:00pm 32.0 27.3 10.8 27 12.3 N 26 32 14 17 1009.3 - 0.0
29/04:30pm 32.4 28.0 10.4 26 12.7 N 24 30 13 16 1009.3 - 0.0
29/04:00pm 32.7 27.7 11.1 26 12.6 NNW 28 35 15 19 1009.4 - 0.0
29/03:30pm 32.8 28.8 11.8 27 12.4 NW 24 30 13 16 1009.7 - 0.0
29/03:00pm 33.1 28.0 10.5 25 13.1 NNW 28 35 15 19 1010.0 1009.7 0.0
29/02:30pm 33.3 29.6 12.6 28 12.4 N 24 33 13 18 1010.3 - 0.0
29/02:00pm 32.6 28.7 13.4 31 11.6 NNW 26 33 14 18 1010.9 - 0.0

Latest Capital City Observations: Canberra | Sydney | Melbourne | Brisbane | Adelaide | Perth | Hobart | Darwin

Other Formats:

Comma delimited format used in spreadsheet applications
http://www.bom.gov.au/fwo/IDD60901/IDD60901.94120.axf

JavaScript Object Notation format (JSON) in row-major order
http://www.bom.gov.au/fwo/IDD60901/IDD60901.94120.json